Time;durP1;ratioP1;P1;durP2;ratioP2;P2;SDS_P1;SDS_P2;PMS_P1;PMS_P2;Temp;Humidity;BMP_temperature;BMP_pressure;BME280_temperature;BME280_humidity;BME280_pressure;Samples;Min_cycle;Max_cycle;Signal;HPM_P1;HPM_P2
2021/12/20 00:01:06;;;;;;;1.50;0.60;;;2.70;92.80;;;;;;5016759;28;20034;-68
2021/12/20 00:03:32;;;;;;;4.47;0.55;;;2.60;92.70;;;;;;5008013;28;20175;-68
2021/12/20 00:05:58;;;;;;;3.45;0.70;;;2.60;92.80;;;;;;5014462;28;20132;-68
2021/12/20 00:08:23;;;;;;;4.82;0.70;;;2.60;92.80;;;;;;5016492;28;20044;-68
2021/12/20 00:10:49;;;;;;;3.47;0.82;;;2.50;92.80;;;;;;5007576;28;20038;-67
2021/12/20 00:13:16;;;;;;;1.15;0.65;;;2.50;92.80;;;;;;5014789;28;20025;-67
2021/12/20 00:15:44;;;;;;;5.10;0.70;;;2.50;92.80;;;;;;5014417;28;20076;-67
2021/12/20 00:18:11;;;;;;;5.20;1.13;;;2.50;92.90;;;;;;5008003;28;20045;-67
2021/12/20 00:20:37;;;;;;;3.67;0.70;;;2.50;92.90;;;;;;5012068;28;20429;-68
2021/12/20 00:23:04;;;;;;;2.72;0.45;;;2.50;92.90;;;;;;5016170;28;20053;-68
2021/12/20 00:25:31;;;;;;;3.67;0.57;;;2.50;93.00;;;;;;5014459;28;20448;-68
2021/12/20 00:27:57;;;;;;;2.88;0.80;;;2.40;93.00;;;;;;5011982;28;20038;-68
2021/12/20 00:30:23;;;;;;;2.15;0.50;;;2.40;93.10;;;;;;5009288;28;20034;-68
2021/12/20 00:32:49;;;;;;;2.60;0.80;;;2.40;93.10;;;;;;5008900;28;20052;-68
2021/12/20 00:35:18;;;;;;;1.35;0.60;;;2.40;93.00;;;;;;5009314;28;20361;-68
2021/12/20 00:40:29;;;;;;;3.45;1.02;;;2.40;92.90;;;;;;5017817;28;20037;-69
2021/12/20 00:42:57;;;;;;;2.35;0.57;;;2.40;93.00;;;;;;5010215;28;20096;-69
2021/12/20 00:45:27;;;;;;;2.58;0.52;;;2.30;93.10;;;;;;5010648;28;20036;-68
2021/12/20 00:47:53;;;;;;;3.75;0.77;;;2.40;93.00;;;;;;5007260;28;20371;-69
2021/12/20 00:50:21;;;;;;;2.45;0.70;;;2.30;93.00;;;;;;5013429;28;20021;-69
2021/12/20 00:52:48;;;;;;;2.13;0.60;;;2.30;93.00;;;;;;5014585;28;20034;-69
2021/12/20 00:55:18;;;;;;;4.22;0.70;;;2.30;93.00;;;;;;5018208;28;20678;-69
2021/12/20 00:57:48;;;;;;;4.28;0.93;;;2.30;93.10;;;;;;5007761;28;20502;-69
2021/12/20 01:00:17;;;;;;;3.10;0.85;;;2.30;93.10;;;;;;5016136;28;20043;-68
2021/12/20 01:02:43;;;;;;;3.35;0.70;;;2.30;93.20;;;;;;5007144;28;20041;-68
2021/12/20 01:05:10;;;;;;;2.90;0.60;;;2.30;93.20;;;;;;5012757;28;20040;-69
2021/12/20 01:07:36;;;;;;;1.67;0.70;;;2.30;93.10;;;;;;5014618;28;20033;-69
2021/12/20 01:10:06;;;;;;;2.80;0.73;;;2.30;93.20;;;;;;5010196;28;20045;-69
2021/12/20 01:12:42;;;;;;;2.03;0.38;;;2.30;93.10;;;;;;5018114;28;20041;-68
2021/12/20 01:15:17;;;;;;;1.27;0.82;;;2.30;93.00;;;;;;5008474;28;20041;-69
2021/12/20 01:17:42;;;;;;;2.67;0.50;;;2.30;93.00;;;;;;5006627;28;20037;-69
2021/12/20 01:20:10;;;;;;;2.30;0.50;;;2.30;93.10;;;;;;5019005;28;20052;-69
2021/12/20 01:22:35;;;;;;;2.53;0.57;;;2.20;92.90;;;;;;5016450;28;20100;-68
2021/12/20 01:25:01;;;;;;;1.05;0.30;;;2.20;92.90;;;;;;5007474;28;20033;-69
2021/12/20 01:27:27;;;;;;;5.68;0.82;;;2.20;93.00;;;;;;5011325;28;20030;-69
2021/12/20 01:29:53;;;;;;;2.15;0.50;;;2.20;93.00;;;;;;5003754;28;20033;-69
2021/12/20 01:32:19;;;;;;;3.88;0.98;;;2.30;93.10;;;;;;5010183;28;20095;-68
2021/12/20 01:34:44;;;;;;;2.38;0.55;;;2.20;93.10;;;;;;5014802;28;20370;-68
2021/12/20 01:37:11;;;;;;;2.35;0.80;;;2.30;93.20;;;;;;5010462;28;20025;-67
2021/12/20 01:39:37;;;;;;;1.95;0.47;;;2.30;93.10;;;;;;5009275;28;20116;-68
2021/12/20 01:42:04;;;;;;;4.97;0.93;;;2.30;92.90;;;;;;5015086;28;20124;-68
2021/12/20 01:44:31;;;;;;;1.60;0.60;;;2.30;92.70;;;;;;5011050;28;20041;-68
2021/12/20 01:47:00;;;;;;;3.83;0.85;;;2.30;92.80;;;;;;5015531;28;20772;-68
2021/12/20 01:49:26;;;;;;;2.80;0.82;;;2.20;92.80;;;;;;5019076;28;20038;-68
2021/12/20 01:54:23;;;;;;;2.90;0.60;;;2.20;92.90;;;;;;5009418;28;20045;-67
2021/12/20 01:56:50;;;;;;;2.30;0.50;;;2.20;92.80;;;;;;5002108;28;20138;-67
2021/12/20 01:59:17;;;;;;;1.92;0.60;;;2.20;92.80;;;;;;5009117;28;20022;-67
2021/12/20 02:01:46;;;;;;;5.65;0.88;;;2.20;92.80;;;;;;5015544;28;20033;-68
2021/12/20 02:04:12;;;;;;;1.95;0.50;;;2.20;92.60;;;;;;5013964;28;20037;-68
2021/12/20 02:06:40;;;;;;;3.20;0.60;;;2.10;92.40;;;;;;5016992;28;20037;-68
2021/12/20 02:09:15;;;;;;;5.43;1.00;;;2.10;92.60;;;;;;5006672;28;20038;-67
2021/12/20 02:11:44;;;;;;;0.75;0.50;;;2.10;92.60;;;;;;5016197;28;20116;-67
2021/12/20 02:14:11;;;;;;;1.42;0.50;;;2.10;92.70;;;;;;5009637;28;20048;-68
2021/12/20 02:16:38;;;;;;;3.63;0.90;;;2.10;92.90;;;;;;5011501;28;20029;-68
2021/12/20 02:19:07;;;;;;;0.93;0.50;;;2.10;92.90;;;;;;5013334;28;20037;-68
2021/12/20 02:21:33;;;;;;;4.97;0.60;;;2.10;92.80;;;;;;5011324;28;20034;-67
2021/12/20 02:23:59;;;;;;;4.47;0.80;;;2.10;92.90;;;;;;5006886;28;20030;-68
2021/12/20 02:26:26;;;;;;;8.27;0.93;;;2.10;92.90;;;;;;5013514;28;20038;-68
2021/12/20 02:28:54;;;;;;;2.42;0.63;;;2.20;92.70;;;;;;5014199;28;20133;-67
2021/12/20 02:39:29;;;;;;;2.20;1.05;;;2.10;92.90;;;;;;5009764;28;20124;-68
2021/12/20 02:41:55;;;;;;;1.45;0.40;;;2.10;92.80;;;;;;5009536;28;20240;-68
2021/12/20 02:44:24;;;;;;;3.95;0.38;;;2.10;92.90;;;;;;5012004;28;20537;-67
2021/12/20 02:47:03;;;;;;;4.18;0.50;;;2.10;92.90;;;;;;5015301;28;20054;-67
2021/12/20 02:49:29;;;;;;;2.20;0.50;;;2.10;92.90;;;;;;5007028;28;20041;-68
2021/12/20 02:52:04;;;;;;;4.57;0.75;;;2.10;92.90;;;;;;5009552;28;20040;-67
2021/12/20 02:54:30;;;;;;;4.85;0.65;;;2.10;92.80;;;;;;5007472;28;20490;-67
2021/12/20 02:56:56;;;;;;;1.65;0.40;;;2.10;92.70;;;;;;5011172;28;20044;-68
2021/12/20 02:59:22;;;;;;;2.58;0.80;;;2.10;92.60;;;;;;5017831;28;20397;-68
2021/12/20 03:01:52;;;;;;;2.95;0.47;;;2.10;92.70;;;;;;5012076;28;20391;-67
2021/12/20 03:04:18;;;;;;;0.85;0.60;;;2.10;92.70;;;;;;5007288;28;20026;-68
2021/12/20 03:06:47;;;;;;;5.22;1.08;;;2.10;92.80;;;;;;5014608;28;20814;-68
2021/12/20 03:09:17;;;;;;;2.10;1.00;;;2.10;92.90;;;;;;5005427;28;20385;-68
2021/12/20 03:11:47;;;;;;;3.22;0.45;;;2.10;92.80;;;;;;5014928;28;20051;-67
2021/12/20 03:14:23;;;;;;;1.52;0.40;;;2.10;92.80;;;;;;5014747;28;20048;-68
2021/12/20 03:16:49;;;;;;;4.07;0.63;;;2.10;92.80;;;;;;5005760;28;20069;-68
2021/12/20 03:19:14;;;;;;;1.55;0.50;;;2.10;92.90;;;;;;5010084;28;20031;-68
2021/12/20 03:21:40;;;;;;;5.32;0.52;;;2.10;92.80;;;;;;5004974;28;20029;-68
2021/12/20 03:24:06;;;;;;;6.30;0.82;;;2.10;92.70;;;;;;5015451;28;20033;-68
2021/12/20 03:26:32;;;;;;;1.90;0.40;;;2.10;92.70;;;;;;5014291;28;20026;-68
2021/12/20 03:28:58;;;;;;;1.90;0.60;;;2.10;92.80;;;;;;5013261;28;20045;-68
2021/12/20 03:31:24;;;;;;;4.82;0.50;;;2.10;92.80;;;;;;5009048;28;20042;-68
2021/12/20 03:33:50;;;;;;;1.10;0.50;;;2.10;93.00;;;;;;5012574;28;20041;-68
2021/12/20 03:36:17;;;;;;;1.92;0.40;;;2.10;93.20;;;;;;5007619;28;20796;-68
2021/12/20 03:38:43;;;;;;;2.05;0.70;;;2.10;92.80;;;;;;5015306;28;20052;-68
2021/12/20 03:41:09;;;;;;;2.17;0.50;;;2.10;92.90;;;;;;5017534;28;20104;-68
2021/12/20 03:43:35;;;;;;;6.20;1.08;;;2.10;92.80;;;;;;5010549;28;20080;-68
2021/12/20 03:46:03;;;;;;;8.15;0.80;;;2.10;92.80;;;;;;5013678;28;20025;-68
2021/12/20 03:48:29;;;;;;;2.15;0.50;;;2.00;92.80;;;;;;5010027;28;20541;-68
2021/12/20 03:50:55;;;;;;;3.13;0.55;;;2.10;92.90;;;;;;5005876;28;20052;-68
2021/12/20 03:53:21;;;;;;;5.03;0.98;;;2.10;92.80;;;;;;5020394;28;20026;-67
2021/12/20 03:55:47;;;;;;;2.22;0.55;;;2.10;92.70;;;;;;5015879;28;20041;-67
2021/12/20 03:58:13;;;;;;;3.55;0.47;;;2.10;92.60;;;;;;5020367;28;20033;-67
2021/12/20 04:00:39;;;;;;;5.93;1.02;;;2.10;92.50;;;;;;5010554;28;20084;-68
2021/12/20 04:03:10;;;;;;;1.98;0.75;;;2.10;92.50;;;;;;5011393;28;20659;-68
2021/12/20 04:05:36;;;;;;;2.38;0.73;;;2.00;92.10;;;;;;5012402;28;20033;-68
2021/12/20 04:08:02;;;;;;;3.42;1.17;;;2.00;92.40;;;;;;5019697;28;20034;-68
2021/12/20 04:10:28;;;;;;;1.73;0.63;;;2.00;92.50;;;;;;5016272;28;20512;-68
2021/12/20 04:12:54;;;;;;;2.78;0.63;;;2.00;92.40;;;;;;5012235;28;20079;-68
2021/12/20 04:15:20;;;;;;;4.30;0.80;;;2.00;92.50;;;;;;4994281;28;20026;-68
2021/12/20 04:17:46;;;;;;;6.93;1.10;;;2.00;92.50;;;;;;5011694;28;20033;-68
2021/12/20 04:20:12;;;;;;;3.22;0.73;;;1.90;92.60;;;;;;5012644;28;20038;-68
2021/12/20 04:22:38;;;;;;;3.00;0.73;;;1.90;92.70;;;;;;5014168;28;20052;-68
2021/12/20 04:25:04;;;;;;;1.80;0.50;;;1.90;92.70;;;;;;5013274;28;20029;-68
2021/12/20 04:27:31;;;;;;;3.30;0.93;;;1.90;92.50;;;;;;5011284;28;20022;-68
2021/12/20 04:29:57;;;;;;;2.15;0.65;;;1.90;92.50;;;;;;5006321;28;20053;-68
2021/12/20 04:32:22;;;;;;;5.13;1.40;;;1.90;92.50;;;;;;5016474;28;20059;-68
2021/12/20 04:34:48;;;;;;;2.10;0.70;;;1.90;92.60;;;;;;5015007;28;20038;-68
2021/12/20 04:37:14;;;;;;;3.10;0.80;;;1.90;92.50;;;;;;5016091;28;20034;-68
2021/12/20 04:39:40;;;;;;;0.85;0.45;;;1.90;92.90;;;;;;5013423;28;20048;-68
2021/12/20 04:42:08;;;;;;;2.65;0.50;;;1.90;92.60;;;;;;5013538;28;20037;-68
2021/12/20 04:44:35;;;;;;;3.88;0.73;;;1.90;92.70;;;;;;5006364;28;20092;-68
2021/12/20 04:47:01;;;;;;;2.42;0.70;;;1.80;92.60;;;;;;5007432;28;20052;-68
2021/12/20 04:49:27;;;;;;;5.65;0.70;;;1.80;92.70;;;;;;5016633;28;20751;-68
2021/12/20 04:51:54;;;;;;;2.17;0.82;;;1.80;92.60;;;;;;5014044;28;20147;-69
2021/12/20 04:54:21;;;;;;;1.63;0.57;;;1.80;92.70;;;;;;5012761;28;20079;-68
2021/12/20 04:56:47;;;;;;;1.92;0.93;;;1.80;92.80;;;;;;5009778;28;20069;-68
2021/12/20 04:59:13;;;;;;;2.00;0.75;;;1.80;92.90;;;;;;5012614;28;20057;-68
2021/12/20 05:01:39;;;;;;;3.95;0.80;;;1.80;92.70;;;;;;5013708;28;20097;-68
2021/12/20 05:04:04;;;;;;;5.25;1.00;;;1.80;92.70;;;;;;5012339;28;20061;-68
2021/12/20 05:06:32;;;;;;;4.03;1.70;;;1.80;92.70;;;;;;5021572;28;20033;-68
2021/12/20 05:08:58;;;;;;;4.75;1.10;;;1.90;92.90;;;;;;5012704;28;20045;-69
2021/12/20 05:11:25;;;;;;;4.18;1.40;;;1.80;92.70;;;;;;5006059;28;20040;-68
2021/12/20 05:13:51;;;;;;;4.78;0.90;;;1.80;92.70;;;;;;5006759;28;20489;-68
2021/12/20 05:16:17;;;;;;;3.22;1.08;;;1.80;92.80;;;;;;5014922;28;20106;-68
2021/12/20 05:18:43;;;;;;;3.97;1.10;;;1.80;92.90;;;;;;5014780;28;20044;-68
2021/12/20 05:21:08;;;;;;;4.22;1.50;;;1.80;92.80;;;;;;5015867;28;20033;-69
2021/12/20 05:23:34;;;;;;;3.35;1.02;;;1.80;92.80;;;;;;5008972;28;20018;-68
2021/12/20 05:26:00;;;;;;;3.55;1.50;;;1.80;92.70;;;;;;5012474;28;20060;-68
2021/12/20 05:28:26;;;;;;;2.55;1.15;;;1.70;92.70;;;;;;5005945;28;20040;-68
2021/12/20 05:30:53;;;;;;;6.03;1.45;;;1.70;92.80;;;;;;5010702;28;20060;-68
2021/12/20 05:33:22;;;;;;;1.10;0.88;;;1.70;93.00;;;;;;5017146;28;20025;-68
2021/12/20 05:35:49;;;;;;;1.35;0.82;;;1.70;93.00;;;;;;4993599;28;20174;-68
2021/12/20 05:38:15;;;;;;;3.70;0.90;;;1.70;92.90;;;;;;5006721;28;20882;-68
2021/12/20 05:40:41;;;;;;;2.95;0.80;;;1.70;93.00;;;;;;5009428;28;20030;-68
2021/12/20 05:43:07;;;;;;;2.42;0.70;;;1.70;93.00;;;;;;5004406;28;20350;-68
2021/12/20 05:45:33;;;;;;;2.55;0.63;;;1.70;92.90;;;;;;5017177;28;20033;-68
2021/12/20 05:47:59;;;;;;;5.95;1.20;;;1.70;92.70;;;;;;5013618;28;20727;-68
2021/12/20 05:50:25;;;;;;;1.38;0.47;;;1.70;92.60;;;;;;5012450;28;20319;-68
2021/12/20 05:52:51;;;;;;;3.38;0.70;;;1.70;92.60;;;;;;5014159;28;20789;-68
2021/12/20 05:55:19;;;;;;;2.80;0.60;;;1.70;92.80;;;;;;5004071;28;20053;-68
2021/12/20 05:57:45;;;;;;;2.30;0.70;;;1.70;92.90;;;;;;5016988;28;20038;-68
2021/12/20 06:00:18;;;;;;;4.03;1.15;;;1.70;92.90;;;;;;5017432;28;20059;-68
2021/12/20 06:02:46;;;;;;;5.22;1.33;;;1.70;93.00;;;;;;5009512;28;20033;-68
2021/12/20 06:05:13;;;;;;;4.38;1.05;;;1.70;93.00;;;;;;5013621;28;20041;-68
2021/12/20 06:07:41;;;;;;;2.28;1.30;;;1.70;93.00;;;;;;5011597;28;20026;-68
2021/12/20 06:10:13;;;;;;;3.35;1.23;;;1.70;93.00;;;;;;5005164;28;20037;-68
2021/12/20 06:12:39;;;;;;;4.05;1.40;;;1.70;93.00;;;;;;5013056;28;20508;-68
2021/12/20 06:15:05;;;;;;;4.78;1.70;;;1.70;92.90;;;;;;5010491;28;20879;-68
2021/12/20 06:17:31;;;;;;;3.45;1.60;;;1.60;93.00;;;;;;5009029;28;20037;-68
2021/12/20 06:19:57;;;;;;;8.20;1.60;;;1.70;93.10;;;;;;5007023;28;20060;-68
2021/12/20 06:22:22;;;;;;;3.72;1.50;;;1.60;93.00;;;;;;5010851;28;20018;-68
2021/12/20 06:24:48;;;;;;;2.33;1.58;;;1.70;93.00;;;;;;5004457;28;20030;-68
2021/12/20 06:27:14;;;;;;;3.10;1.02;;;1.70;93.00;;;;;;5005253;28;20041;-68
2021/12/20 06:29:40;;;;;;;4.80;1.58;;;1.60;93.00;;;;;;5016885;28;20207;-68
2021/12/20 06:32:06;;;;;;;4.45;1.33;;;1.60;93.00;;;;;;5011376;28;20139;-69
2021/12/20 06:34:32;;;;;;;5.13;1.10;;;1.60;93.00;;;;;;5011791;28;20095;-68
2021/12/20 06:36:57;;;;;;;3.15;1.35;;;1.60;93.00;;;;;;5011629;28;20042;-68
2021/12/20 06:39:23;;;;;;;2.33;0.75;;;1.60;93.10;;;;;;5009943;28;20100;-68
2021/12/20 06:41:50;;;;;;;4.75;0.80;;;1.60;93.10;;;;;;5007373;28;20026;-68
2021/12/20 06:44:17;;;;;;;4.13;0.85;;;1.60;93.00;;;;;;5008239;28;20376;-68
2021/12/20 06:46:43;;;;;;;3.22;0.90;;;1.70;92.80;;;;;;5007762;28;20037;-68
2021/12/20 06:49:10;;;;;;;2.50;0.70;;;1.60;92.50;;;;;;5015328;28;20064;-67
2021/12/20 06:51:40;;;;;;;1.67;1.15;;;1.60;92.60;;;;;;5004766;28;20129;-68
2021/12/20 06:54:06;;;;;;;1.20;0.77;;;1.60;92.70;;;;;;5009983;28;20136;-68
2021/12/20 06:56:32;;;;;;;5.50;1.00;;;1.60;92.80;;;;;;5013871;28;20141;-68
2021/12/20 06:58:58;;;;;;;2.83;1.17;;;1.60;92.70;;;;;;5011066;28;20136;-68
2021/12/20 07:01:24;;;;;;;4.43;1.30;;;1.60;92.90;;;;;;5007658;28;20044;-69
2021/12/20 07:03:49;;;;;;;3.80;1.40;;;1.60;92.80;;;;;;5007033;28;20030;-68
2021/12/20 07:06:15;;;;;;;6.10;1.38;;;1.60;92.80;;;;;;5008363;28;20026;-68
2021/12/20 07:08:41;;;;;;;3.22;1.02;;;1.60;93.00;;;;;;5010634;28;20080;-68
2021/12/20 07:11:08;;;;;;;5.57;1.20;;;1.60;92.70;;;;;;5008892;28;20030;-68
2021/12/20 07:13:34;;;;;;;1.42;1.15;;;1.60;92.80;;;;;;5005786;28;20049;-68
2021/12/20 07:16:00;;;;;;;3.70;0.82;;;1.60;92.90;;;;;;5005821;28;20033;-68
2021/12/20 07:18:25;;;;;;;3.28;0.95;;;1.60;92.90;;;;;;5007295;28;20033;-68
2021/12/20 07:20:51;;;;;;;2.17;0.95;;;1.60;92.90;;;;;;5008219;28;20033;-68
2021/12/20 07:23:17;;;;;;;2.70;0.95;;;1.60;92.90;;;;;;5004597;28;20077;-68
2021/12/20 07:25:42;;;;;;;1.75;0.90;;;1.60;92.90;;;;;;5010752;28;20030;-68
2021/12/20 07:28:08;;;;;;;3.53;1.02;;;1.60;92.90;;;;;;5009613;28;20056;-68
2021/12/20 07:30:35;;;;;;;3.17;1.00;;;1.60;92.80;;;;;;5011122;28;20041;-68
2021/12/20 07:33:01;;;;;;;5.45;1.30;;;1.60;92.90;;;;;;5008359;28;20157;-68
2021/12/20 07:35:27;;;;;;;2.90;0.80;;;1.60;93.00;;;;;;5008960;28;20141;-68
2021/12/20 07:37:56;;;;;;;3.30;0.77;;;1.60;93.00;;;;;;5006248;28;20045;-68
2021/12/20 07:40:22;;;;;;;5.47;0.80;;;1.70;93.00;;;;;;5007356;28;20052;-68
2021/12/20 07:42:48;;;;;;;1.25;0.60;;;1.70;92.80;;;;;;5008961;28;20260;-68
2021/12/20 07:45:14;;;;;;;4.00;1.13;;;1.70;92.80;;;;;;5015434;28;20131;-68
2021/12/20 07:47:39;;;;;;;2.28;0.73;;;1.80;92.80;;;;;;5010825;28;20049;-68
2021/12/20 07:50:30;;;;;;;6.32;0.80;;;1.80;93.00;;;;;;5013279;28;20052;-68
2021/12/20 07:52:56;;;;;;;4.10;1.10;;;1.80;92.60;;;;;;5008263;28;20029;-69
2021/12/20 07:55:22;;;;;;;1.88;0.85;;;1.90;92.70;;;;;;5009108;28;20033;-68
2021/12/20 07:57:47;;;;;;;3.28;0.98;;;1.90;92.60;;;;;;5002608;28;20067;-68
2021/12/20 08:00:14;;;;;;;2.25;0.93;;;1.90;92.70;;;;;;5007261;28;20041;-68
2021/12/20 08:02:41;;;;;;;3.80;1.02;;;2.00;92.60;;;;;;5007835;28;20048;-68
2021/12/20 08:05:07;;;;;;;4.60;1.20;;;2.00;92.70;;;;;;5009433;28;20690;-69
2021/12/20 08:07:33;;;;;;;2.67;0.73;;;2.10;92.60;;;;;;5006642;28;20044;-69
2021/12/20 08:09:59;;;;;;;1.95;0.70;;;2.20;92.40;;;;;;4991807;28;20037;-69
2021/12/20 08:12:24;;;;;;;3.90;1.38;;;2.20;92.20;;;;;;5009585;28;20030;-69
2021/12/20 08:14:50;;;;;;;6.57;1.35;;;2.30;92.30;;;;;;5007139;28;20038;-68
2021/12/20 08:17:16;;;;;;;4.13;1.25;;;2.30;92.20;;;;;;5014905;28;20524;-69
2021/12/20 08:19:41;;;;;;;4.53;0.77;;;2.40;92.20;;;;;;5016339;28;20048;-68
2021/12/20 08:22:07;;;;;;;3.50;0.55;;;2.40;92.10;;;;;;5013012;28;20152;-69
2021/12/20 08:24:33;;;;;;;2.75;1.25;;;2.50;92.10;;;;;;5012147;28;20060;-69
2021/12/20 08:26:59;;;;;;;7.68;1.20;;;2.70;92.00;;;;;;5012961;28;20044;-69
2021/12/20 08:29:26;;;;;;;4.75;1.05;;;3.10;91.40;;;;;;5009869;28;20644;-69
2021/12/20 08:31:51;;;;;;;1.88;0.95;;;3.60;90.40;;;;;;5010338;28;20486;-68
2021/12/20 08:34:17;;;;;;;6.47;1.35;;;3.90;89.50;;;;;;5012690;28;20036;-68
2021/12/20 08:36:43;;;;;;;4.88;1.38;;;4.00;88.40;;;;;;5016197;28;20480;-68
2021/12/20 08:39:14;;;;;;;7.18;0.90;;;4.00;87.80;;;;;;5010693;28;20033;-68
2021/12/20 08:41:39;;;;;;;6.75;1.15;;;3.90;87.60;;;;;;5014702;28;20040;-67
2021/12/20 08:44:05;;;;;;;3.13;1.10;;;3.90;88.00;;;;;;5015083;28;20493;-68
2021/12/20 08:46:31;;;;;;;4.78;0.98;;;3.90;88.30;;;;;;5014283;28;20076;-68
2021/12/20 08:48:56;;;;;;;3.53;0.98;;;3.80;87.60;;;;;;5010017;28;20051;-68
2021/12/20 08:51:25;;;;;;;6.32;1.08;;;3.80;88.20;;;;;;5018466;28;20048;-68
2021/12/20 08:53:51;;;;;;;5.55;1.15;;;3.70;88.70;;;;;;5014087;28;20048;-68
2021/12/20 08:56:17;;;;;;;3.65;1.08;;;3.70;88.50;;;;;;5012978;28;20065;-68
2021/12/20 08:58:44;;;;;;;4.95;1.23;;;3.80;89.20;;;;;;5016559;28;20041;-68
2021/12/20 09:01:10;;;;;;;5.00;1.75;;;3.80;89.10;;;;;;5007548;28;20033;-67
2021/12/20 09:03:36;;;;;;;2.92;1.10;;;4.10;88.60;;;;;;5006964;28;20501;-68
2021/12/20 09:06:02;;;;;;;4.05;1.00;;;4.70;87.20;;;;;;5007920;28;20193;-68
2021/12/20 09:08:30;;;;;;;3.30;1.00;;;5.20;85.30;;;;;;5005725;28;20064;-68
2021/12/20 09:10:55;;;;;;;2.97;1.08;;;5.60;82.80;;;;;;5005757;28;20034;-68
2021/12/20 09:13:21;;;;;;;5.05;1.70;;;5.90;82.00;;;;;;5009448;28;20562;-68
2021/12/20 09:15:47;;;;;;;4.53;1.50;;;6.10;80.50;;;;;;5010247;28;20041;-68
2021/12/20 09:18:13;;;;;;;5.13;1.73;;;6.70;78.70;;;;;;4997611;28;20584;-68
2021/12/20 09:20:39;;;;;;;5.68;2.25;;;7.70;73.50;;;;;;4994716;28;20092;-68
2021/12/20 09:23:08;;;;;;;5.50;1.27;;;8.80;70.10;;;;;;4994818;28;20065;-69
2021/12/20 09:25:36;;;;;;;4.25;1.00;;;9.70;65.60;;;;;;5013255;28;20413;-69
2021/12/20 09:28:04;;;;;;;6.05;1.20;;;10.40;62.10;;;;;;5010106;28;20034;-68
2021/12/20 09:30:31;;;;;;;5.88;1.27;;;11.00;59.80;;;;;;5013213;28;20049;-69
2021/12/20 09:32:57;;;;;;;4.63;1.30;;;11.40;58.10;;;;;;5015118;28;20183;-69
2021/12/20 09:35:23;;;;;;;3.55;1.40;;;11.80;56.30;;;;;;5008757;28;20044;-68
2021/12/20 09:37:51;;;;;;;4.38;1.40;;;12.20;56.40;;;;;;5007773;28;20045;-69
2021/12/20 09:40:27;;;;;;;3.75;1.55;;;12.50;54.00;;;;;;5009673;28;20044;-69
2021/12/20 09:42:54;;;;;;;3.03;0.93;;;12.80;53.60;;;;;;5004676;28;20045;-69
2021/12/20 09:45:23;;;;;;;6.63;1.45;;;13.10;52.40;;;;;;5009634;28;20105;-68
2021/12/20 09:47:50;;;;;;;5.70;1.40;;;13.30;51.50;;;;;;5007369;28;20033;-68
2021/12/20 09:50:17;;;;;;;4.50;1.25;;;13.40;51.30;;;;;;5009490;28;20034;-69
2021/12/20 09:52:43;;;;;;;4.15;1.10;;;13.50;50.40;;;;;;5012895;28;20033;-69
2021/12/20 09:55:10;;;;;;;4.78;1.30;;;13.60;50.10;;;;;;5010591;28;20065;-69
2021/12/20 09:57:37;;;;;;;3.10;1.10;;;13.70;50.30;;;;;;5009268;28;20497;-68
2021/12/20 10:00:09;;;;;;;5.53;1.33;;;13.90;50.00;;;;;;5008008;28;20034;-69
2021/12/20 10:02:41;;;;;;;4.15;1.38;;;14.00;49.50;;;;;;5007938;28;20030;-69
2021/12/20 10:05:07;;;;;;;4.80;1.35;;;13.80;50.30;;;;;;5008989;28;20032;-68
2021/12/20 10:07:33;;;;;;;4.18;1.50;;;13.90;50.60;;;;;;5006629;28;20041;-68
2021/12/20 10:10:00;;;;;;;3.55;1.40;;;13.90;50.10;;;;;;5006143;28;20034;-68
2021/12/20 10:12:27;;;;;;;3.50;1.40;;;13.80;49.90;;;;;;5013844;28;20052;-67
2021/12/20 10:15:19;;;;;;;4.03;1.50;;;14.00;50.50;;;;;;5010972;28;20052;-68
2021/12/20 10:17:54;;;;;;;3.45;1.60;;;14.10;49.90;;;;;;5015024;28;20108;-68
2021/12/20 10:20:31;;;;;;;6.85;3.25;;;14.20;49.70;;;;;;5003534;28;20120;-66
2021/12/20 10:23:16;;;;;;;6.22;2.88;;;14.20;49.10;;;;;;5009141;28;20040;-67
2021/12/20 10:25:44;;;;;;;5.45;1.92;;;14.00;49.50;;;;;;5013019;28;20099;-68
2021/12/20 10:28:24;;;;;;;3.75;1.95;;;13.80;50.40;;;;;;5012025;28;20037;-68
2021/12/20 10:30:55;;;;;;;4.18;1.85;;;13.80;50.70;;;;;;4995030;28;20153;-67
2021/12/20 10:33:22;;;;;;;10.25;4.20;;;13.60;51.60;;;;;;5008333;28;20548;-67
2021/12/20 10:35:52;;;;;;;6.22;2.65;;;13.10;52.00;;;;;;5007341;28;20056;-67
2021/12/20 10:38:18;;;;;;;4.18;2.20;;;12.50;54.10;;;;;;5014706;28;20041;-68
2021/12/20 10:40:51;;;;;;;5.70;1.90;;;11.90;55.40;;;;;;5007996;28;20036;-67
2021/12/20 10:43:19;;;;;;;6.30;1.92;;;10.90;57.30;;;;;;5010451;28;20060;-68
2021/12/20 10:45:44;;;;;;;4.60;1.95;;;10.10;60.70;;;;;;5003520;28;20123;-68
2021/12/20 10:48:12;;;;;;;7.35;3.08;;;9.40;62.90;;;;;;5005376;28;20529;-68
2021/12/20 10:50:42;;;;;;;7.13;3.42;;;8.70;64.40;;;;;;5005009;28;20030;-68
2021/12/20 10:53:11;;;;;;;10.15;4.47;;;8.20;67.50;;;;;;5011781;28;20049;-67
2021/12/20 10:55:52;;;;;;;9.10;3.78;;;7.90;69.00;;;;;;5005874;28;20037;-68
2021/12/20 10:58:28;;;;;;;3.63;2.20;;;7.70;69.80;;;;;;5011893;28;20084;-68
2021/12/20 11:01:14;;;;;;;6.50;1.65;;;7.30;72.10;;;;;;5008702;28;20128;-68
2021/12/20 11:03:42;;;;;;;5.13;1.52;;;7.20;73.20;;;;;;5011341;28;20116;-67
2021/12/20 11:11:29;;;;;;;2.58;1.33;;;7.80;72.60;;;;;;5013850;28;20447;-68
2021/12/20 11:13:55;;;;;;;4.93;1.70;;;8.30;71.00;;;;;;5003025;28;20030;-68
2021/12/20 11:16:34;;;;;;;4.57;1.50;;;8.50;69.80;;;;;;5011078;28;20528;-68
2021/12/20 11:19:17;;;;;;;4.18;1.70;;;8.40;70.10;;;;;;5005042;28;20103;-68
2021/12/20 11:21:58;;;;;;;4.57;1.27;;;8.20;70.30;;;;;;5005462;28;20076;-68
2021/12/20 11:24:31;;;;;;;6.15;1.30;;;8.00;72.20;;;;;;5013227;28;20741;-68
2021/12/20 11:26:58;;;;;;;2.83;1.48;;;7.80;72.60;;;;;;5007927;28;20049;-67
2021/12/20 11:29:25;;;;;;;3.08;1.35;;;7.80;73.30;;;;;;5011922;28;20029;-67
2021/12/20 11:31:52;;;;;;;4.75;1.20;;;7.60;74.20;;;;;;5015906;28;20049;-67
2021/12/20 11:34:18;;;;;;;5.85;2.10;;;7.50;74.30;;;;;;5010466;28;20037;-67
2021/12/20 11:36:45;;;;;;;4.70;1.50;;;7.40;75.50;;;;;;5005457;28;20092;-67
2021/12/20 11:39:11;;;;;;;5.88;1.45;;;7.30;75.10;;;;;;5010077;28;20052;-67
2021/12/20 11:41:37;;;;;;;6.30;1.10;;;7.30;75.60;;;;;;5003706;28;20045;-68
2021/12/20 11:44:05;;;;;;;3.15;1.15;;;7.30;76.60;;;;;;5011607;28;20141;-68
2021/12/20 11:46:41;;;;;;;6.80;2.08;;;7.30;76.20;;;;;;5004237;28;20137;-67
2021/12/20 11:49:08;;;;;;;5.28;1.65;;;7.20;75.70;;;;;;5015791;28;20048;-66
2021/12/20 11:52:02;;;;;;;4.55;1.63;;;7.00;76.80;;;;;;5017832;28;20844;-65
2021/12/20 11:54:40;;;;;;;5.93;1.40;;;6.90;77.40;;;;;;5019278;28;20046;-67
2021/12/20 11:57:25;;;;;;;6.70;2.10;;;6.80;78.70;;;;;;5009676;28;20484;-67
2021/12/20 11:59:53;;;;;;;4.28;1.17;;;6.80;78.90;;;;;;5012920;28;20056;-68
2021/12/20 12:02:32;;;;;;;7.55;1.30;;;6.80;79.10;;;;;;5012046;28;20545;-66
2021/12/20 12:05:05;;;;;;;10.13;1.30;;;6.90;79.00;;;;;;5011741;28;20069;-67
2021/12/20 12:07:35;;;;;;;2.42;0.90;;;6.80;78.20;;;;;;5012910;28;20025;-67
2021/12/20 12:10:07;;;;;;;4.43;0.98;;;6.90;78.50;;;;;;5016997;28;20037;-66
2021/12/20 12:12:39;;;;;;;3.28;1.20;;;7.00;79.40;;;;;;5019427;28;20037;-63
2021/12/20 12:15:21;;;;;;;1.90;1.30;;;6.90;79.40;;;;;;5010734;28;20034;-67
2021/12/20 12:17:53;;;;;;;5.60;1.52;;;6.90;77.40;;;;;;4998439;28;20034;-69
2021/12/20 12:20:48;;;;;;;3.22;0.95;;;6.90;78.80;;;;;;5014164;28;20124;-67
2021/12/20 12:23:25;;;;;;;6.15;1.60;;;6.90;79.00;;;;;;5015403;28;20626;-69
2021/12/20 12:25:56;;;;;;;4.10;0.95;;;7.00;78.20;;;;;;5008942;28;20037;-68
2021/12/20 12:28:44;;;;;;;4.70;1.38;;;7.10;77.20;;;;;;5009408;28;20065;-67
2021/12/20 12:31:09;;;;;;;4.22;1.10;;;7.10;77.70;;;;;;5013692;28;20084;-67
2021/12/20 12:33:39;;;;;;;5.90;1.50;;;7.10;78.40;;;;;;5012034;28;20059;-70
2021/12/20 12:36:08;;;;;;;7.93;1.25;;;7.00;78.00;;;;;;5012555;28;20092;-70
2021/12/20 12:38:52;;;;;;;2.90;1.42;;;7.00;77.60;;;;;;5012080;28;20057;-69
2021/12/20 12:41:29;;;;;;;4.45;1.17;;;6.90;78.30;;;;;;5013272;28;20108;-66
2021/12/20 12:44:18;;;;;;;3.92;1.13;;;6.90;77.90;;;;;;5006326;28;20116;-66
2021/12/20 12:46:45;;;;;;;4.43;1.02;;;6.80;79.00;;;;;;5011629;28;20033;-67
2021/12/20 12:49:32;;;;;;;7.00;1.77;;;6.80;78.60;;;;;;5003760;28;20121;-66
2021/12/20 12:52:04;;;;;;;4.65;1.50;;;6.80;79.00;;;;;;5009287;28;20076;-66
2021/12/20 12:54:33;;;;;;;10.80;3.63;;;6.80;80.00;;;;;;5007159;28;20049;-67
2021/12/20 12:57:11;;;;;;;11.55;5.13;;;6.80;79.60;;;;;;5009834;28;20129;-66
2021/12/20 12:59:49;;;;;;;5.88;2.50;;;6.80;79.80;;;;;;5012216;28;20124;-67
2021/12/20 13:02:23;;;;;;;10.25;4.03;;;6.80;79.70;;;;;;5013314;28;20091;-66
2021/12/20 13:04:55;;;;;;;7.47;2.53;;;6.80;80.00;;;;;;5012536;28;20059;-66
2021/12/20 13:07:28;;;;;;;9.57;4.90;;;6.70;80.10;;;;;;5005766;28;20033;-67
2021/12/20 13:09:58;;;;;;;5.93;2.40;;;6.70;80.80;;;;;;5011058;28;20124;-67
2021/12/20 13:12:43;;;;;;;4.95;1.17;;;6.70;80.60;;;;;;5008080;28;20080;-67
2021/12/20 13:15:29;;;;;;;3.60;0.98;;;6.60;80.20;;;;;;5008106;28;20046;-67
2021/12/20 13:17:57;;;;;;;4.43;1.13;;;6.60;80.50;;;;;;5015928;28;20282;-67
2021/12/20 13:23:02;;;;;;;3.60;1.40;;;6.50;80.60;;;;;;5016437;28;20037;-67